createdAt,value
2019-04-20T00:01:50.499Z,11.36
2019-04-20T00:04:27.188Z,11.38
2019-04-20T00:06:56.500Z,11.36
2019-04-20T00:09:34.854Z,11.45
2019-04-20T00:12:10.739Z,11.45
2019-04-20T00:14:39.173Z,11.39
2019-04-20T00:17:11.636Z,11.29
2019-04-20T00:19:47.559Z,11.14
2019-04-20T00:22:24.642Z,11.04
2019-04-20T00:25:17.611Z,10.96
2019-04-20T00:28:25.073Z,10.88
2019-04-20T00:30:58.689Z,10.78
2019-04-20T00:33:36.393Z,10.75
2019-04-20T00:35:48.515Z,10.74
2019-04-20T00:38:25.992Z,10.70
2019-04-20T00:41:02.007Z,10.65
2019-04-20T00:43:32.977Z,10.59
2019-04-20T00:46:10.353Z,10.58
2019-04-20T00:48:47.342Z,10.40
2019-04-20T00:51:41.958Z,10.43
2019-04-20T00:53:48.135Z,10.40
2019-04-20T00:56:20.289Z,10.25
2019-04-20T00:59:06.055Z,10.26
2019-04-20T01:01:50.174Z,10.24
2019-04-20T01:04:20.125Z,10.10
2019-04-20T01:06:58.721Z,10.08
2019-04-20T01:09:30.882Z,10.14
2019-04-20T01:12:09.991Z,10.14
2019-04-20T01:14:43.696Z,10.15
2019-04-20T01:17:12.117Z,10.15
2019-04-20T01:19:43.985Z,10.17
2019-04-20T01:22:18.447Z,10.13
2019-04-20T01:24:54.617Z,9.98
2019-04-20T01:27:39.864Z,10.03
2019-04-20T01:30:10.220Z,9.96
2019-04-20T01:32:51.485Z,9.83
2019-04-20T01:35:24.773Z,9.57
2019-04-20T01:38:05.472Z,9.51
2019-04-20T01:40:19.109Z,9.44
2019-04-20T01:42:51.251Z,9.36
2019-04-20T01:45:30.712Z,9.30
2019-04-20T01:47:59.483Z,9.23
2019-04-20T01:50:33.717Z,9.17
2019-04-20T01:53:12.773Z,9.06
2019-04-20T01:55:50.897Z,8.93
2019-04-20T01:58:55.299Z,8.79
2019-04-20T02:01:34.319Z,8.74
2019-04-20T02:04:24.801Z,8.58
2019-04-20T02:06:55.266Z,8.36
2019-04-20T02:09:28.051Z,8.19
2019-04-20T02:12:05.888Z,8.13
2019-04-20T02:14:42.457Z,8.09
2019-04-20T02:17:16.740Z,8.19
2019-04-20T02:20:00.972Z,8.15
2019-04-20T02:22:37.287Z,7.99
2019-04-20T02:24:51.046Z,7.68
2019-04-20T02:27:30.822Z,7.75
2019-04-20T02:30:25.274Z,7.84
2019-04-20T02:33:19.799Z,7.72
2019-04-20T02:41:47.737Z,7.54
2019-04-20T02:44:21.801Z,7.60
2019-04-20T02:46:51.161Z,7.66
2019-04-20T02:51:54.740Z,7.73
2019-04-20T02:54:40.828Z,7.70
2019-04-20T02:57:05.714Z,7.67
2019-04-20T02:59:53.292Z,7.58
2019-04-20T03:01:55.274Z,7.49
2019-04-20T03:04:20.553Z,7.58
2019-04-20T03:06:59.791Z,7.63
2019-04-20T03:09:39.973Z,7.60
2019-04-20T03:12:18.596Z,7.49
2019-04-20T03:14:39.911Z,7.41
2019-04-20T03:17:22.695Z,7.37
2019-04-20T03:19:47.647Z,7.43
2019-04-20T03:22:46.666Z,7.51
2019-04-20T03:25:05.147Z,7.55
2019-04-20T03:27:45.994Z,7.49
2019-04-20T03:31:22.814Z,7.41
2019-04-20T03:33:44.710Z,7.36
2019-04-20T03:36:10.309Z,7.36
2019-04-20T03:38:34.844Z,7.43
2019-04-20T03:40:59.259Z,7.44
2019-04-20T03:43:20.093Z,7.35
2019-04-20T03:45:59.501Z,7.32
2019-04-20T03:48:41.386Z,7.32
2019-04-20T03:51:25.092Z,7.21
2019-04-20T03:54:25.166Z,7.21
2019-04-20T03:57:16.966Z,7.22
2019-04-20T03:59:55.089Z,7.32
2019-04-20T04:03:04.207Z,7.28
2019-04-20T04:05:28.860Z,7.31
2019-04-20T04:07:55.876Z,7.23
2019-04-20T04:10:30.441Z,7.23
2019-04-20T04:13:13.053Z,7.12
2019-04-20T04:15:52.034Z,7.01
2019-04-20T04:18:28.093Z,6.89
2019-04-20T04:21:03.023Z,6.86
2019-04-20T04:23:44.547Z,6.87
2019-04-20T04:26:22.104Z,6.84
2019-04-20T04:28:55.969Z,6.96
2019-04-20T04:31:34.955Z,6.98
2019-04-20T04:34:20.668Z,7.04
2019-04-20T04:36:35.955Z,7.03
2019-04-20T04:39:17.785Z,7.05
2019-04-20T04:41:51.022Z,7.06
2019-04-20T04:44:17.990Z,6.91
2019-04-20T04:46:43.520Z,6.86
2019-04-20T04:49:18.349Z,6.91
2019-04-20T04:51:51.477Z,7.01
2019-04-20T04:54:25.927Z,7.12
2019-04-20T04:56:50.413Z,7.25
2019-04-20T04:59:23.437Z,7.37
2019-04-20T05:01:58.396Z,7.43
2019-04-20T05:05:12.467Z,7.44
2019-04-20T05:07:46.054Z,7.50
2019-04-20T05:10:03.804Z,7.51
2019-04-20T05:12:37.220Z,7.52
2019-04-20T05:15:22.326Z,7.40
2019-04-20T05:18:07.184Z,7.30
2019-04-20T05:20:45.098Z,7.31
2019-04-20T05:23:12.667Z,7.39
2019-04-20T05:26:19.704Z,7.45
2019-04-20T05:28:47.317Z,7.63
2019-04-20T05:31:09.709Z,7.75
2019-04-20T05:34:08.095Z,7.83
2019-04-20T05:36:29.616Z,7.99
2019-04-20T05:39:15.849Z,8.10
2019-04-20T05:41:44.059Z,8.19
2019-04-20T05:44:12.653Z,8.31
2019-04-20T05:46:53.242Z,8.36
2019-04-20T05:49:27.168Z,8.42
2019-04-20T05:52:04.117Z,8.45
2019-04-20T05:54:39.126Z,8.62
2019-04-20T05:57:17.477Z,8.62
2019-04-20T05:59:40.922Z,8.75
2019-04-20T06:02:15.998Z,8.86
2019-04-20T06:04:59.923Z,8.97
2019-04-20T06:07:25.271Z,9.03
2019-04-20T06:10:00.597Z,9.06
2019-04-20T06:12:33.071Z,9.09
2019-04-20T06:15:15.481Z,9.16
2019-04-20T06:18:02.486Z,9.25
2019-04-20T06:20:46.970Z,9.51
2019-04-20T06:23:47.497Z,9.63
2019-04-20T06:26:33.556Z,9.71
2019-04-20T06:28:43.906Z,9.86
2019-04-20T06:31:27.969Z,9.92
2019-04-20T06:34:31.061Z,10.06
2019-04-20T06:37:06.992Z,10.23
2019-04-20T06:39:36.986Z,10.32
2019-04-20T06:42:16.155Z,10.52
2019-04-20T06:44:41.473Z,10.59
2019-04-20T06:47:22.761Z,10.73
2019-04-20T06:49:48.078Z,10.88
2019-04-20T06:52:42.495Z,11.01
2019-04-20T06:55:15.692Z,11.11
2019-04-20T06:57:50.390Z,11.23
2019-04-20T07:00:42.058Z,11.30
2019-04-20T07:03:01.860Z,11.48
2019-04-20T07:05:37.896Z,11.55
2019-04-20T07:08:29.120Z,11.63
2019-04-20T07:10:54.469Z,11.67
2019-04-20T07:13:14.304Z,11.71
2019-04-20T07:16:13.763Z,11.85
2019-04-20T07:19:00.813Z,11.98
2019-04-20T07:24:35.066Z,12.28
2019-04-20T07:27:04.811Z,12.41
2019-04-20T07:29:44.915Z,12.53
2019-04-20T07:32:09.096Z,12.61
2019-04-20T07:34:51.557Z,12.77
2019-04-20T07:40:05.608Z,12.89
2019-04-20T07:42:40.786Z,12.91
2019-04-20T07:45:16.882Z,13.11
2019-04-20T07:47:55.296Z,13.29
2019-04-20T07:50:13.678Z,13.54
2019-04-20T07:52:46.345Z,13.72
2019-04-20T07:57:57.711Z,13.94
2019-04-20T08:00:51.447Z,14.11
2019-04-20T08:06:02.465Z,14.19
2019-04-20T08:08:47.603Z,14.40
2019-04-20T08:11:13.967Z,14.73
2019-04-20T08:13:59.037Z,14.90
2019-04-20T08:16:41.124Z,14.92
2019-04-20T08:19:08.431Z,15.10
2019-04-20T08:21:43.708Z,15.30
2019-04-20T08:24:13.288Z,15.36
2019-04-20T08:26:34.819Z,15.49
2019-04-20T08:29:29.983Z,15.48
2019-04-20T08:32:38.960Z,15.66
2019-04-20T08:35:24.431Z,15.72
2019-04-20T08:38:12.264Z,15.87
2019-04-20T08:40:25.420Z,15.87
2019-04-20T08:43:13.059Z,15.91
2019-04-20T08:45:45.809Z,16.20
2019-04-20T08:48:18.873Z,16.20
2019-04-20T08:50:51.733Z,16.22
2019-04-20T08:53:27.598Z,16.36
2019-04-20T08:55:54.244Z,16.50
2019-04-20T08:58:13.642Z,16.62
2019-04-20T09:00:50.151Z,16.75
2019-04-20T09:03:25.392Z,16.77
2019-04-20T09:06:04.637Z,16.79
2019-04-20T09:08:37.630Z,16.89
2019-04-20T09:11:19.658Z,17.10
2019-04-20T09:13:43.167Z,17.06
2019-04-20T09:16:13.164Z,17.19
2019-04-20T09:18:52.463Z,17.37
2019-04-20T09:21:29.682Z,17.47
2019-04-20T09:24:21.714Z,17.28
2019-04-20T09:26:43.207Z,17.53
2019-04-20T09:29:12.698Z,17.79
2019-04-20T09:31:52.109Z,17.83
2019-04-20T09:34:50.899Z,17.86
2019-04-20T09:37:33.883Z,17.88
2019-04-20T09:40:28.263Z,17.96
2019-04-20T09:43:08.912Z,17.98
2019-04-20T09:45:48.986Z,18.07
2019-04-20T09:48:29.798Z,17.97
2019-04-20T09:51:15.043Z,18.08
2019-04-20T09:53:39.216Z,18.25
2019-04-20T09:56:18.159Z,18.52
2019-04-20T09:58:55.157Z,18.59
2019-04-20T10:01:19.146Z,18.40
2019-04-20T10:03:44.911Z,18.62
2019-04-20T10:06:23.042Z,18.61
2019-04-20T10:08:56.242Z,18.64
2019-04-20T10:11:25.578Z,18.62
2019-04-20T10:13:58.559Z,18.56
2019-04-20T10:16:31.999Z,18.48
2019-04-20T10:19:04.921Z,18.65
2019-04-20T10:21:39.546Z,18.48
2019-04-20T10:24:12.607Z,18.54
2019-04-20T10:26:45.250Z,18.62
2019-04-20T10:29:19.605Z,18.60
2019-04-20T10:31:57.422Z,18.46
2019-04-20T10:34:28.494Z,18.63
2019-04-20T10:37:19.734Z,18.46
2019-04-20T10:39:52.369Z,18.63
2019-04-20T10:42:24.359Z,18.40
2019-04-20T10:45:00.348Z,18.64
2019-04-20T10:47:32.756Z,18.93
2019-04-20T10:50:05.099Z,19.06
2019-04-20T10:52:38.122Z,19.05
2019-04-20T10:55:12.482Z,18.89
2019-04-20T10:57:44.141Z,18.99
2019-04-20T11:00:17.503Z,19.08
2019-04-20T11:02:51.329Z,19.12
2019-04-20T11:05:24.478Z,19.34
2019-04-20T11:07:56.836Z,19.25
2019-04-20T11:10:34.503Z,19.31
2019-04-20T11:13:03.205Z,19.59
2019-04-20T11:15:36.647Z,19.35
2019-04-20T11:18:09.299Z,19.07
2019-04-20T11:20:41.523Z,19.28
2019-04-20T11:23:14.002Z,19.43
2019-04-20T11:25:46.389Z,19.70
2019-04-20T11:28:18.032Z,19.82
2019-04-20T11:30:52.135Z,19.76
2019-04-20T11:33:24.566Z,19.85
2019-04-20T11:35:57.156Z,19.98
2019-04-20T11:38:30.203Z,19.54
2019-04-20T11:41:11.188Z,19.60
2019-04-20T11:43:38.184Z,19.63
2019-04-20T11:46:12.239Z,19.67
2019-04-20T11:48:45.467Z,19.79
2019-04-20T11:51:19.183Z,19.90
2019-04-20T11:53:52.241Z,20.31
2019-04-20T11:56:28.461Z,20.74
2019-04-20T11:58:58.904Z,21.58
2019-04-20T12:02:02.705Z,21.43
2019-04-20T12:04:44.234Z,21.37
2019-04-20T12:07:09.247Z,21.54
2019-04-20T12:09:41.855Z,21.00
2019-04-20T12:12:29.320Z,21.69
2019-04-20T12:14:48.467Z,21.99
2019-04-20T12:17:21.787Z,23.38
2019-04-20T12:19:53.813Z,23.45
2019-04-20T12:22:26.201Z,21.61
2019-04-20T12:24:58.243Z,22.20
2019-04-20T12:27:32.449Z,23.13
2019-04-20T12:30:05.892Z,22.78
2019-04-20T12:32:42.857Z,23.22
2019-04-20T12:35:12.546Z,22.07
2019-04-20T12:37:47.223Z,21.48
2019-04-20T12:40:21.874Z,21.59
2019-04-20T12:42:54.938Z,21.57
2019-04-20T12:45:27.614Z,21.72
2019-04-20T12:48:00.004Z,21.56
2019-04-20T12:50:31.937Z,21.34
2019-04-20T12:53:04.461Z,21.68
2019-04-20T12:55:36.788Z,21.68
2019-04-20T12:58:08.740Z,21.32
2019-04-20T13:00:46.038Z,21.41
2019-04-20T13:03:19.372Z,21.29
2019-04-20T13:05:54.087Z,21.46
2019-04-20T13:08:33.859Z,21.79
2019-04-20T13:11:08.753Z,22.18
2019-04-20T13:13:52.476Z,23.11
2019-04-20T13:16:30.385Z,22.42
2019-04-20T13:19:05.717Z,21.51
2019-04-20T13:21:39.083Z,21.62
2019-04-20T13:30:16.565Z,21.72
2019-04-20T13:32:49.766Z,21.42
2019-04-20T13:35:22.516Z,21.32
2019-04-20T13:37:54.306Z,21.53
2019-04-20T13:40:26.091Z,20.94
2019-04-20T13:43:01.709Z,20.88
2019-04-20T13:45:33.288Z,20.92
2019-04-20T13:48:05.066Z,20.66
2019-04-20T13:50:38.170Z,20.86
2019-04-20T13:53:11.589Z,20.82
2019-04-20T13:55:43.603Z,21.18
2019-04-20T13:58:33.876Z,22.24
2019-04-20T14:01:24.713Z,22.12
2019-04-20T14:04:23.231Z,21.89
2019-04-20T14:06:57.570Z,21.21
2019-04-20T14:09:29.781Z,21.46
2019-04-20T14:12:14.045Z,21.73
2019-04-20T14:14:37.205Z,21.23
2019-04-20T14:17:09.215Z,21.04
2019-04-20T14:19:41.142Z,20.94
2019-04-20T14:22:13.206Z,20.68
2019-04-20T14:24:46.941Z,21.63
2019-04-20T14:27:19.050Z,21.74
2019-04-20T14:29:51.037Z,21.71
2019-04-20T14:32:24.921Z,22.33
2019-04-20T14:34:56.927Z,22.57
2019-04-20T14:37:29.051Z,21.50
2019-04-20T14:40:01.843Z,21.91
2019-04-20T14:42:41.903Z,21.66
2019-04-20T14:45:08.889Z,20.80
2019-04-20T14:47:41.546Z,20.90
2019-04-20T14:50:13.775Z,20.93
2019-04-20T14:52:47.176Z,20.60
2019-04-20T14:55:19.500Z,20.85
2019-04-20T14:57:53.228Z,21.16
2019-04-20T15:00:45.780Z,21.12
2019-04-20T15:03:38.438Z,20.61
2019-04-20T15:06:09.675Z,20.73
2019-04-20T15:08:42.909Z,20.53
2019-04-20T15:11:14.891Z,20.49
2019-04-20T15:13:48.921Z,20.58
2019-04-20T15:16:22.372Z,20.16
2019-04-20T15:19:12.071Z,19.84
2019-04-20T15:21:47.321Z,19.86
2019-04-20T15:24:19.676Z,20.18
2019-04-20T15:26:52.155Z,20.37
2019-04-20T15:29:24.332Z,20.22
2019-04-20T15:31:56.498Z,19.87
2019-04-20T15:34:28.855Z,19.63
2019-04-20T15:37:02.358Z,19.73
2019-04-20T15:39:34.880Z,20.27
2019-04-20T15:42:07.417Z,20.44
2019-04-20T15:44:39.744Z,20.92
2019-04-20T15:47:11.511Z,20.67
2019-04-20T15:49:44.149Z,20.15
2019-04-20T15:52:22.559Z,19.98
2019-04-20T15:54:49.846Z,19.23
2019-04-20T15:57:25.728Z,19.30
2019-04-20T15:59:56.188Z,19.44
2019-04-20T16:02:39.037Z,19.44
2019-04-20T16:05:30.396Z,19.22
2019-04-20T16:08:38.314Z,19.00
2019-04-20T16:11:11.374Z,19.15
2019-04-20T16:13:47.562Z,19.20
2019-04-20T16:16:19.488Z,18.69
2019-04-20T16:18:52.802Z,18.78
2019-04-20T16:21:28.042Z,18.61
2019-04-20T16:24:06.792Z,18.36
2019-04-20T16:26:49.578Z,18.16
2019-04-20T16:29:23.785Z,18.28
2019-04-20T16:31:56.507Z,18.06
2019-04-20T16:34:29.543Z,17.76
2019-04-20T16:37:02.160Z,17.71
2019-04-20T16:39:34.869Z,17.67
2019-04-20T16:42:08.709Z,17.60
2019-04-20T16:44:41.124Z,17.47
2019-04-20T16:47:14.335Z,17.39
2019-04-20T16:49:46.734Z,17.37
2019-04-20T16:52:19.048Z,17.29
2019-04-20T16:54:51.260Z,17.30
2019-04-20T16:57:23.792Z,17.26
2019-04-20T16:59:58.191Z,17.13
2019-04-20T17:02:31.913Z,17.13
2019-04-20T17:05:05.109Z,17.06
2019-04-20T17:07:40.192Z,16.93
2019-04-20T17:10:13.714Z,16.91
2019-04-20T17:12:46.092Z,16.72
2019-04-20T17:15:19.657Z,16.69
2019-04-20T17:17:52.959Z,16.65
2019-04-20T17:20:27.024Z,16.53
2019-04-20T17:22:58.662Z,16.45
2019-04-20T17:25:30.236Z,16.39
2019-04-20T17:28:20.696Z,16.29
2019-04-20T17:31:15.592Z,16.25
2019-04-20T17:34:01.468Z,16.16
2019-04-20T17:36:29.840Z,16.13
2019-04-20T17:39:06.053Z,16.07
2019-04-20T17:41:55.787Z,15.98
2019-04-20T17:44:25.030Z,15.96
2019-04-20T17:46:57.807Z,15.87
2019-04-20T17:49:29.218Z,15.79
2019-04-20T17:52:17.643Z,15.72
2019-04-20T17:54:45.390Z,15.73
2019-04-20T17:57:17.556Z,15.68
2019-04-20T17:59:59.608Z,15.57
2019-04-20T18:02:59.328Z,15.50
2019-04-20T18:06:06.193Z,15.44
2019-04-20T18:08:36.943Z,15.39
2019-04-20T18:11:01.857Z,15.32
2019-04-20T18:13:30.326Z,15.28
2019-04-20T18:16:22.214Z,15.23
2019-04-20T18:19:04.017Z,15.15
2019-04-20T18:21:35.870Z,15.07
2019-04-20T18:24:14.505Z,14.91
2019-04-20T18:26:59.154Z,14.83
2019-04-20T18:29:39.839Z,14.71
2019-04-20T18:32:20.285Z,14.66
2019-04-20T18:35:04.837Z,14.63
2019-04-20T18:37:36.457Z,14.62
2019-04-20T18:40:12.724Z,14.57
2019-04-20T18:42:44.228Z,14.53
2019-04-20T18:45:29.572Z,14.49
2019-04-20T18:48:13.037Z,14.40
2019-04-20T18:50:31.960Z,14.32
2019-04-20T18:52:58.340Z,14.29
2019-04-20T18:55:41.651Z,14.20
2019-04-20T18:58:04.717Z,14.21
2019-04-20T19:00:43.712Z,14.16
2019-04-20T19:03:20.570Z,14.10
2019-04-20T19:05:47.476Z,14.09
2019-04-20T19:08:30.262Z,14.03
2019-04-20T19:11:04.128Z,13.98
2019-04-20T19:13:38.705Z,13.95
2019-04-20T19:16:34.652Z,13.90
2019-04-20T19:19:24.250Z,13.89
2019-04-20T19:21:52.056Z,13.89
2019-04-20T19:24:29.529Z,13.84
2019-04-20T19:27:03.523Z,13.82
2019-04-20T19:29:39.154Z,13.79
2019-04-20T19:32:23.830Z,13.78
2019-04-20T19:34:50.045Z,13.80
2019-04-20T19:37:24.249Z,13.72
2019-04-20T19:40:02.789Z,13.60
2019-04-20T19:42:35.954Z,13.41
2019-04-20T19:45:27.428Z,13.32
2019-04-20T19:47:48.249Z,13.30
2019-04-20T19:53:13.745Z,13.16
2019-04-20T19:55:31.361Z,13.15
2019-04-20T19:58:01.393Z,13.16
2019-04-20T20:00:51.219Z,13.12
2019-04-20T20:03:22.087Z,13.08
2019-04-20T20:05:55.819Z,13.05
2019-04-20T20:08:29.938Z,12.99
2019-04-20T20:11:02.997Z,12.95
2019-04-20T20:13:42.927Z,12.95
2019-04-20T20:16:14.261Z,12.95
2019-04-20T20:18:54.522Z,12.91
2019-04-20T20:21:27.250Z,12.93
2019-04-20T20:23:50.132Z,12.90
2019-04-20T20:26:29.472Z,12.87
2019-04-20T20:29:08.215Z,12.76
2019-04-20T20:31:46.109Z,12.71
2019-04-20T20:34:15.783Z,12.61
2019-04-20T20:36:43.520Z,12.58
2019-04-20T20:39:16.672Z,12.54
2019-04-20T20:42:00.457Z,12.45
2019-04-20T20:44:36.043Z,12.42
2019-04-20T20:47:03.536Z,12.34
2019-04-20T20:49:48.645Z,12.28
2019-04-20T20:52:20.498Z,12.25
2019-04-20T20:54:44.884Z,12.19
2019-04-20T20:57:16.554Z,12.21
2019-04-20T20:59:54.822Z,12.22
2019-04-20T21:02:22.490Z,12.21
2019-04-20T21:04:53.262Z,12.15
2019-04-20T21:07:26.721Z,12.08
2019-04-20T21:09:58.737Z,12.08
2019-04-20T21:12:36.390Z,12.07
2019-04-20T21:15:12.041Z,11.99
2019-04-20T21:18:05.582Z,11.96
2019-04-20T21:20:31.280Z,11.94
2019-04-20T21:23:02.678Z,11.93
2019-04-20T21:25:34.575Z,11.85
2019-04-20T21:28:02.593Z,11.83
2019-04-20T21:30:40.007Z,11.72
2019-04-20T21:33:09.762Z,11.71
2019-04-20T21:35:46.418Z,11.65
2019-04-20T21:38:18.507Z,11.59
2019-04-20T21:40:54.867Z,11.61
2019-04-20T21:43:27.928Z,11.55
2019-04-20T21:46:02.874Z,11.59
2019-04-20T21:48:43.949Z,11.51
2019-04-20T21:51:22.873Z,11.45
2019-04-20T21:53:37.851Z,11.41
2019-04-20T21:56:12.251Z,11.36
2019-04-20T21:58:50.430Z,11.40
2019-04-20T22:01:27.295Z,11.33
2019-04-20T22:03:54.296Z,11.33
2019-04-20T22:06:26.660Z,11.33
2019-04-20T22:09:02.096Z,11.28
2019-04-20T22:11:33.772Z,11.20
2019-04-20T22:14:12.949Z,11.17
2019-04-20T22:16:44.097Z,11.11
2019-04-20T22:19:28.573Z,11.03
2019-04-20T22:22:00.041Z,11.06
2019-04-20T22:24:34.246Z,11.02
2019-04-20T22:27:05.113Z,11.00
2019-04-20T22:29:26.069Z,10.97
2019-04-20T22:32:04.091Z,10.90
2019-04-20T22:34:31.897Z,10.82
2019-04-20T22:37:08.562Z,10.81
2019-04-20T22:39:46.670Z,10.83
2019-04-20T22:42:16.488Z,10.82
2019-04-20T22:44:56.599Z,10.86
2019-04-20T22:47:29.324Z,10.82
2019-04-20T22:50:21.889Z,10.78
2019-04-20T22:52:47.819Z,10.77
2019-04-20T22:55:38.907Z,10.80
2019-04-20T22:57:53.408Z,10.69
2019-04-20T23:00:29.222Z,10.72
2019-04-20T23:02:50.943Z,10.69
2019-04-20T23:05:24.710Z,10.71
2019-04-20T23:07:57.031Z,10.63
2019-04-20T23:10:35.826Z,10.62
2019-04-20T23:13:03.206Z,10.53
2019-04-20T23:15:36.292Z,10.57
2019-04-20T23:18:10.364Z,10.55
2019-04-20T23:20:42.797Z,10.61
2019-04-20T23:23:20.772Z,10.60
2019-04-20T23:25:49.324Z,10.63
2019-04-20T23:28:23.055Z,10.61
2019-04-20T23:31:04.515Z,10.60
2019-04-20T23:33:29.534Z,10.54
2019-04-20T23:36:04.375Z,10.49
2019-04-20T23:38:35.011Z,10.49
2019-04-20T23:41:08.469Z,10.51
2019-04-20T23:43:45.280Z,10.49
2019-04-20T23:47:04.621Z,10.47
2019-04-20T23:49:53.570Z,10.51
2019-04-20T23:52:33.804Z,10.39
2019-04-20T23:54:47.317Z,10.37
2019-04-20T23:57:13.542Z,10.37
2019-04-20T23:59:46.999Z,10.40
